createdAt,value
2018-08-03T00:04:55.771Z,99.90
2018-08-03T00:07:24.292Z,99.90
2018-08-03T00:09:52.878Z,99.90
2018-08-03T00:12:21.374Z,99.90
2018-08-03T00:14:49.858Z,99.90
2018-08-03T00:17:18.386Z,99.90
2018-08-03T00:19:46.849Z,99.90
2018-08-03T00:22:15.348Z,99.90
2018-08-03T00:24:43.834Z,99.90
2018-08-03T00:27:12.353Z,99.90
2018-08-03T00:29:40.858Z,99.90
2018-08-03T00:32:09.351Z,99.90
2018-08-03T00:34:37.903Z,99.90
2018-08-03T00:37:06.591Z,99.90
2018-08-03T00:39:35.287Z,99.90
2018-08-03T00:42:03.762Z,99.90
2018-08-03T00:44:32.214Z,99.90
2018-08-03T00:47:00.719Z,99.90
2018-08-03T00:49:29.257Z,99.90
2018-08-03T00:51:57.870Z,99.90
2018-08-03T00:54:26.481Z,99.90
2018-08-03T00:59:23.245Z,99.90
2018-08-03T01:04:20.133Z,99.90
2018-08-03T01:06:48.630Z,99.90
2018-08-03T01:09:17.104Z,99.90
2018-08-03T01:11:45.802Z,99.90
2018-08-03T01:14:14.301Z,99.90
2018-08-03T01:16:43.426Z,99.90
2018-08-03T01:21:44.900Z,99.90
2018-08-03T01:26:41.637Z,99.90
2018-08-03T01:29:10.062Z,99.90
2018-08-03T01:31:38.582Z,99.90
2018-08-03T01:34:07.084Z,99.90
2018-08-03T01:36:35.636Z,99.90
2018-08-03T01:39:05.654Z,99.90
2018-08-03T01:41:34.093Z,99.90
2018-08-03T01:44:02.598Z,99.90
2018-08-03T01:46:31.834Z,99.90
2018-08-03T01:49:00.304Z,99.90
2018-08-03T01:51:28.838Z,99.90
2018-08-03T01:53:57.510Z,99.90
2018-08-03T01:56:25.905Z,99.90
2018-08-03T01:58:54.338Z,99.90
2018-08-03T02:01:22.820Z,99.90
2018-08-03T02:03:51.659Z,99.90
2018-08-03T02:06:27.789Z,99.90
2018-08-03T02:11:24.519Z,99.90
2018-08-03T02:13:53.226Z,99.90
2018-08-03T02:16:22.156Z,99.90
2018-08-03T02:18:50.623Z,99.90
2018-08-03T02:21:19.050Z,99.90
2018-08-03T02:23:47.465Z,99.90
2018-08-03T02:26:16.016Z,99.90
2018-08-03T02:28:44.486Z,99.90
2018-08-03T02:31:12.897Z,99.90
2018-08-03T02:33:41.361Z,99.90
2018-08-03T02:36:09.944Z,99.90
2018-08-03T02:38:38.370Z,99.90
2018-08-03T02:41:07.143Z,99.90
2018-08-03T02:46:03.929Z,99.90
2018-08-03T02:48:32.501Z,99.90
2018-08-03T02:51:00.956Z,99.90
2018-08-03T02:53:29.436Z,99.90
2018-08-03T02:55:57.877Z,99.90
2018-08-03T02:58:26.451Z,99.90
2018-08-03T03:00:54.942Z,99.90
2018-08-03T03:03:29.990Z,99.90
2018-08-03T03:05:58.434Z,99.90
2018-08-03T03:08:26.872Z,99.90
2018-08-03T03:10:55.411Z,99.90
2018-08-03T03:13:24.102Z,99.90
2018-08-03T03:15:52.699Z,99.90
2018-08-03T03:18:21.222Z,99.90
2018-08-03T03:20:49.773Z,99.90
2018-08-03T03:23:18.483Z,99.90
2018-08-03T03:28:15.145Z,99.90
2018-08-03T03:30:43.678Z,99.90
2018-08-03T03:33:12.180Z,99.90
2018-08-03T03:35:40.783Z,99.90
2018-08-03T03:38:09.339Z,99.90
2018-08-03T03:40:37.751Z,99.90
2018-08-03T03:43:06.417Z,99.90
2018-08-03T03:45:34.947Z,99.90
2018-08-03T03:48:03.405Z,99.90
2018-08-03T03:50:31.900Z,99.90
2018-08-03T03:53:00.441Z,99.90
2018-08-03T03:55:29.443Z,99.90
2018-08-03T03:57:58.047Z,99.90
2018-08-03T04:00:26.474Z,99.90
2018-08-03T04:02:57.147Z,99.90
2018-08-03T04:05:25.664Z,99.90
2018-08-03T04:07:54.334Z,99.90
2018-08-03T04:10:22.867Z,99.90
2018-08-03T04:12:51.371Z,99.90
2018-08-03T04:17:48.083Z,99.90
2018-08-03T04:20:17.194Z,99.90
2018-08-03T04:22:45.855Z,99.90
2018-08-03T04:25:14.423Z,99.90
2018-08-03T04:27:42.961Z,99.90
2018-08-03T04:30:11.463Z,99.90
2018-08-03T04:32:40.247Z,99.90
2018-08-03T04:40:05.834Z,99.90
2018-08-03T04:42:35.293Z,99.90
2018-08-03T04:45:04.103Z,99.90
2018-08-03T04:47:32.537Z,99.90
2018-08-03T04:50:01.023Z,99.90
2018-08-03T04:52:29.835Z,99.90
2018-08-03T04:54:58.560Z,99.90
2018-08-03T04:57:27.040Z,99.90
2018-08-03T04:59:55.529Z,99.90
2018-08-03T05:02:24.166Z,99.90
2018-08-03T05:04:52.758Z,99.90
2018-08-03T05:07:21.463Z,99.90
2018-08-03T05:09:49.973Z,99.90
2018-08-03T05:12:18.464Z,99.90
2018-08-03T05:14:46.937Z,99.90
2018-08-03T05:17:15.370Z,99.90
2018-08-03T05:22:12.024Z,99.90
2018-08-03T05:24:40.574Z,99.90
2018-08-03T05:27:09.291Z,99.90
2018-08-03T05:32:06.815Z,99.90
2018-08-03T05:34:35.266Z,99.90
2018-08-03T05:37:04.067Z,99.90
2018-08-03T05:39:32.594Z,99.90
2018-08-03T05:42:01.070Z,99.90
2018-08-03T05:44:30.100Z,99.90
2018-08-03T05:49:26.771Z,99.90
2018-08-03T05:51:55.217Z,99.90
2018-08-03T05:54:23.749Z,99.90
2018-08-03T05:56:52.404Z,99.90
2018-08-03T05:59:20.905Z,99.90
2018-08-03T06:01:49.417Z,99.90
2018-08-03T06:04:17.895Z,99.90
2018-08-03T06:06:46.504Z,99.90
2018-08-03T06:09:15.015Z,99.90
2018-08-03T06:11:43.728Z,99.90
2018-08-03T06:14:12.785Z,99.90
2018-08-03T06:16:41.301Z,99.90
2018-08-03T06:19:09.884Z,99.90
2018-08-03T06:21:38.434Z,99.90
2018-08-03T06:24:07.194Z,99.90
2018-08-03T06:26:35.963Z,99.90
2018-08-03T06:29:04.477Z,99.90
2018-08-03T06:31:34.079Z,99.90
2018-08-03T06:34:03.862Z,99.90
2018-08-03T06:36:32.338Z,99.90
2018-08-03T06:39:00.867Z,99.90
2018-08-03T06:41:29.370Z,99.90
2018-08-03T06:43:58.088Z,99.90
2018-08-03T06:46:27.155Z,99.90
2018-08-03T06:48:55.897Z,99.90
2018-08-03T06:51:24.350Z,99.90
2018-08-03T06:53:52.909Z,99.90
2018-08-03T06:56:21.394Z,99.90
2018-08-03T06:58:49.980Z,99.90
2018-08-03T07:01:18.441Z,99.90
2018-08-03T07:03:47.075Z,99.90
2018-08-03T07:06:15.595Z,99.90
2018-08-03T07:08:44.841Z,99.90
2018-08-03T07:11:13.261Z,99.90
2018-08-03T07:13:41.745Z,99.90
2018-08-03T07:21:07.463Z,99.90
2018-08-03T07:23:36.035Z,99.90
2018-08-03T07:26:04.565Z,99.90
2018-08-03T07:28:33.089Z,99.90
2018-08-03T07:31:01.603Z,99.90
2018-08-03T07:33:30.240Z,99.90
2018-08-03T07:35:58.955Z,99.90
2018-08-03T07:38:27.471Z,99.90
2018-08-03T07:40:56.451Z,99.90
2018-08-03T07:43:24.953Z,99.90
2018-08-03T07:45:53.381Z,99.90
2018-08-03T07:48:21.854Z,99.90
2018-08-03T07:50:50.328Z,99.90
2018-08-03T07:53:19.077Z,99.90
2018-08-03T07:58:15.898Z,99.90
2018-08-03T08:00:44.400Z,99.90
2018-08-03T08:03:12.938Z,99.90
2018-08-03T08:05:41.603Z,99.90
2018-08-03T08:08:10.110Z,99.90
2018-08-03T08:10:39.804Z,99.90
2018-08-03T08:13:08.317Z,99.90
2018-08-03T08:15:37.137Z,99.90
2018-08-03T08:18:05.709Z,99.90
2018-08-03T08:20:34.195Z,99.90
2018-08-03T08:23:02.633Z,99.90
2018-08-03T08:25:31.714Z,99.90
2018-08-03T08:28:01.086Z,99.90
2018-08-03T08:32:57.830Z,99.90
2018-08-03T08:35:26.538Z,99.90
2018-08-03T08:40:23.185Z,99.90
2018-08-03T08:42:51.669Z,99.90
2018-08-03T08:45:20.410Z,99.90
2018-08-03T08:47:49.029Z,99.90
2018-08-03T08:50:17.526Z,99.90
2018-08-03T08:52:46.034Z,99.90
2018-08-03T08:55:14.694Z,99.90
2018-08-03T08:57:43.114Z,99.90
2018-08-03T09:00:11.602Z,99.90
2018-08-03T09:02:40.350Z,99.80
2018-08-03T09:05:08.781Z,99.70
2018-08-03T09:07:37.431Z,98.60
2018-08-03T09:10:05.818Z,98.70
2018-08-03T09:12:35.338Z,98.10
2018-08-03T09:15:03.887Z,98.20
2018-08-03T09:17:32.378Z,97.60
2018-08-03T09:20:00.822Z,97.60
2018-08-03T09:22:29.285Z,96.90
2018-08-03T09:24:57.838Z,95.80
2018-08-03T09:27:26.474Z,95.00
2018-08-03T09:29:54.965Z,95.30
2018-08-03T09:34:52.059Z,94.50
2018-08-03T09:37:20.608Z,95.00
2018-08-03T09:42:17.539Z,93.90
2018-08-03T09:44:46.378Z,94.00
2018-08-03T09:47:14.886Z,91.30
2018-08-03T09:49:43.361Z,91.60
2018-08-03T09:52:11.786Z,90.40
2018-08-03T09:54:40.262Z,90.20
2018-08-03T09:57:08.690Z,88.70
2018-08-03T09:59:37.213Z,88.30
2018-08-03T10:02:05.704Z,88.10
2018-08-03T10:04:34.171Z,86.00
2018-08-03T10:07:02.590Z,85.90
2018-08-03T10:11:59.286Z,87.10
2018-08-03T10:14:27.785Z,87.60
2018-08-03T10:16:56.290Z,88.50
2018-08-03T10:19:24.741Z,88.40
2018-08-03T10:21:53.723Z,88.00
2018-08-03T10:24:22.179Z,83.80
2018-08-03T10:26:50.754Z,85.80
2018-08-03T10:29:19.787Z,80.30
2018-08-03T10:31:48.251Z,79.90
2018-08-03T10:34:16.898Z,81.10
2018-08-03T10:36:45.370Z,72.20
2018-08-03T10:39:13.876Z,69.00
2018-08-03T10:41:42.406Z,66.90
2018-08-03T10:44:11.690Z,68.00
2018-08-03T10:46:40.206Z,68.00
2018-08-03T10:49:08.752Z,65.70
2018-08-03T10:51:37.253Z,61.10
2018-08-03T10:54:05.857Z,60.50
2018-08-03T10:56:34.350Z,63.10
2018-08-03T10:59:02.888Z,60.60
2018-08-03T11:01:31.563Z,57.50
2018-08-03T11:04:00.086Z,56.20
2018-08-03T11:06:28.564Z,58.90
2018-08-03T11:08:57.165Z,59.00
2018-08-03T11:11:25.659Z,58.10
2018-08-03T11:13:54.188Z,57.30
2018-08-03T11:16:22.752Z,57.60
2018-08-03T11:18:51.211Z,57.60
2018-08-03T11:21:19.673Z,57.10
2018-08-03T11:26:16.381Z,57.80
2018-08-03T11:28:44.890Z,57.40
2018-08-03T11:31:13.335Z,58.20
2018-08-03T11:33:41.825Z,57.70
2018-08-03T11:36:10.249Z,58.10
2018-08-03T11:38:38.746Z,57.30
2018-08-03T11:41:07.429Z,58.40
2018-08-03T11:43:35.996Z,56.20
2018-08-03T11:46:04.583Z,54.70
2018-08-03T11:48:33.162Z,55.20
2018-08-03T11:51:01.654Z,53.30
2018-08-03T11:53:30.463Z,54.50
2018-08-03T11:55:58.956Z,55.20
2018-08-03T11:58:27.647Z,55.10
2018-08-03T12:00:56.198Z,56.30
2018-08-03T12:03:24.656Z,56.50
2018-08-03T12:05:53.137Z,55.80
2018-08-03T12:08:21.877Z,56.30
2018-08-03T12:10:50.367Z,55.20
2018-08-03T12:13:18.851Z,55.60
2018-08-03T12:15:47.370Z,57.10
2018-08-03T12:18:15.823Z,55.80
2018-08-03T12:20:46.116Z,55.60
2018-08-03T12:23:15.017Z,55.00
2018-08-03T12:25:44.082Z,55.40
2018-08-03T12:33:09.927Z,54.00
2018-08-03T12:35:38.586Z,53.20
2018-08-03T12:38:10.154Z,52.80
2018-08-03T12:40:38.615Z,52.00
2018-08-03T12:43:07.142Z,52.50
2018-08-03T12:45:35.615Z,53.40
2018-08-03T12:48:04.109Z,54.60
2018-08-03T12:53:00.841Z,54.50
2018-08-03T12:55:29.341Z,52.90
2018-08-03T12:57:57.819Z,51.50
2018-08-03T13:00:26.384Z,51.80
2018-08-03T13:02:55.162Z,52.60
2018-08-03T13:05:23.795Z,51.50
2018-08-03T13:07:52.429Z,51.40
2018-08-03T13:10:20.827Z,50.40
2018-08-03T13:12:49.343Z,49.80
2018-08-03T13:15:18.509Z,49.10
2018-08-03T13:20:15.223Z,49.80
2018-08-03T13:22:43.693Z,50.10
2018-08-03T13:25:12.242Z,50.70
2018-08-03T13:27:40.862Z,51.30
2018-08-03T13:30:09.291Z,50.80
2018-08-03T13:32:37.779Z,50.80
2018-08-03T13:35:07.182Z,50.90
2018-08-03T13:40:04.102Z,49.90
2018-08-03T13:42:32.791Z,49.70
2018-08-03T13:45:01.254Z,48.80
2018-08-03T13:47:29.738Z,49.20
2018-08-03T13:49:58.215Z,49.90
2018-08-03T13:52:26.910Z,49.70
2018-08-03T13:54:55.396Z,50.40
2018-08-03T13:57:23.893Z,51.20
2018-08-03T13:59:52.445Z,52.00
2018-08-03T14:02:25.109Z,51.30
2018-08-03T14:04:54.357Z,50.40
2018-08-03T14:07:23.419Z,50.30
2018-08-03T14:09:52.501Z,50.80
2018-08-03T14:12:21.061Z,51.50
2018-08-03T14:14:49.653Z,52.10
2018-08-03T14:17:18.209Z,51.10
2018-08-03T14:19:46.775Z,50.80
2018-08-03T14:22:15.382Z,51.70
2018-08-03T14:24:43.996Z,50.80
2018-08-03T14:27:12.520Z,50.20
2018-08-03T14:29:41.055Z,50.60
2018-08-03T14:32:09.578Z,50.60
2018-08-03T14:34:38.066Z,49.90
2018-08-03T14:37:06.531Z,49.00
2018-08-03T14:39:35.581Z,49.40
2018-08-03T14:42:05.086Z,49.40
2018-08-03T14:44:33.600Z,49.30
2018-08-03T14:47:02.102Z,48.90
2018-08-03T14:49:30.687Z,48.80
2018-08-03T14:51:59.147Z,49.40
2018-08-03T14:54:28.285Z,49.70
2018-08-03T14:56:57.119Z,48.80
2018-08-03T14:59:25.610Z,49.20
2018-08-03T15:01:54.179Z,48.90
2018-08-03T15:04:22.702Z,48.80
2018-08-03T15:06:51.767Z,48.40
2018-08-03T15:09:20.289Z,49.20
2018-08-03T15:11:48.838Z,48.90
2018-08-03T15:14:17.391Z,48.80
2018-08-03T15:16:45.979Z,49.20
2018-08-03T15:19:14.443Z,49.00
2018-08-03T15:24:11.203Z,48.50
2018-08-03T15:29:07.862Z,48.60
2018-08-03T15:31:36.438Z,49.00
2018-08-03T15:34:04.974Z,48.50
2018-08-03T15:36:33.469Z,48.60
2018-08-03T15:39:02.064Z,49.40
2018-08-03T15:41:30.644Z,49.30
2018-08-03T15:43:59.443Z,49.50
2018-08-03T15:46:28.380Z,49.70
2018-08-03T15:51:25.582Z,49.20
2018-08-03T15:53:54.184Z,49.40
2018-08-03T15:56:22.727Z,49.50
2018-08-03T15:58:51.248Z,49.20
2018-08-03T16:01:19.767Z,49.70
2018-08-03T16:03:48.307Z,49.50
2018-08-03T16:06:16.794Z,49.30
2018-08-03T16:08:45.462Z,48.80
2018-08-03T16:11:14.022Z,48.90
2018-08-03T16:13:42.575Z,49.20
2018-08-03T16:16:11.080Z,48.90
2018-08-03T16:18:39.709Z,49.10
2018-08-03T16:21:08.330Z,49.00
2018-08-03T16:23:36.994Z,48.40
2018-08-03T16:26:06.330Z,48.30
2018-08-03T16:28:35.219Z,48.90
2018-08-03T16:31:04.885Z,48.60
2018-08-03T16:33:33.454Z,48.70
2018-08-03T16:36:02.263Z,48.80
2018-08-03T16:40:58.935Z,49.30
2018-08-03T16:43:27.499Z,49.10
2018-08-03T16:45:56.002Z,49.20
2018-08-03T16:48:24.572Z,49.50
2018-08-03T16:50:53.614Z,48.70
2018-08-03T16:53:22.110Z,48.50
2018-08-03T16:55:50.944Z,48.80
2018-08-03T17:00:47.753Z,48.60
2018-08-03T17:03:16.491Z,48.90
2018-08-03T17:05:45.116Z,48.30
2018-08-03T17:08:14.075Z,48.10
2018-08-03T17:10:42.659Z,48.20
2018-08-03T17:15:39.642Z,48.30
2018-08-03T17:18:08.233Z,48.60
2018-08-03T17:20:36.805Z,49.40
2018-08-03T17:23:05.884Z,49.70
2018-08-03T17:28:02.626Z,49.50
2018-08-03T17:30:31.283Z,49.70
2018-08-03T17:32:59.819Z,49.50
2018-08-03T17:35:28.379Z,50.10
2018-08-03T17:37:56.958Z,49.70
2018-08-03T17:42:53.992Z,49.90
2018-08-03T17:45:22.523Z,49.70
2018-08-03T17:47:51.709Z,49.30
2018-08-03T17:52:48.665Z,49.50
2018-08-03T17:57:45.338Z,50.70
2018-08-03T18:00:13.862Z,51.10
2018-08-03T18:02:42.354Z,51.30
2018-08-03T18:05:10.810Z,51.40
2018-08-03T18:07:39.565Z,51.60
2018-08-03T18:12:37.421Z,51.50
2018-08-03T18:15:07.037Z,52.00
2018-08-03T18:17:35.551Z,51.70
2018-08-03T18:20:04.605Z,52.10
2018-08-03T18:22:33.151Z,52.20
2018-08-03T18:25:01.670Z,52.30
2018-08-03T18:27:30.125Z,52.50
2018-08-03T18:29:58.601Z,52.90
2018-08-03T18:32:27.984Z,53.40
2018-08-03T18:34:56.417Z,53.80
2018-08-03T18:37:24.938Z,54.30
2018-08-03T18:39:53.398Z,54.70
2018-08-03T18:42:21.889Z,55.10
2018-08-03T18:44:51.191Z,55.50
2018-08-03T18:47:19.878Z,55.70
2018-08-03T18:49:48.389Z,55.90
2018-08-03T18:52:17.647Z,56.20
2018-08-03T18:54:46.387Z,56.80
2018-08-03T18:57:15.057Z,57.40
2018-08-03T18:59:43.559Z,57.90
2018-08-03T19:02:12.116Z,58.20
2018-08-03T19:04:40.704Z,58.70
2018-08-03T19:07:09.221Z,59.50
2018-08-03T19:09:38.569Z,59.60
2018-08-03T19:14:35.381Z,59.90
2018-08-03T19:17:03.957Z,60.80
2018-08-03T19:19:32.551Z,61.30
2018-08-03T19:22:01.262Z,62.10
2018-08-03T19:24:29.764Z,62.20
2018-08-03T19:26:58.331Z,62.90
2018-08-03T19:29:26.809Z,63.70
2018-08-03T19:31:55.366Z,64.70
2018-08-03T19:34:23.855Z,64.70
2018-08-03T19:36:52.457Z,65.30
2018-08-03T19:39:20.931Z,65.60
2018-08-03T19:41:49.543Z,65.70
2018-08-03T19:44:18.079Z,66.90
2018-08-03T19:46:46.730Z,67.20
2018-08-03T19:49:15.207Z,67.90
2018-08-03T19:51:43.744Z,67.90
2018-08-03T19:54:12.467Z,67.90
2018-08-03T19:56:41.121Z,68.20
2018-08-03T20:01:37.818Z,68.60
2018-08-03T20:04:06.878Z,69.30
2018-08-03T20:06:35.842Z,70.40
2018-08-03T20:09:07.906Z,70.80
2018-08-03T20:11:36.489Z,71.10
2018-08-03T20:14:05.072Z,71.90
2018-08-03T20:16:33.671Z,73.60
2018-08-03T20:19:02.143Z,73.20
2018-08-03T20:21:30.679Z,73.10
2018-08-03T20:23:59.197Z,72.90
2018-08-03T20:26:27.710Z,73.30
2018-08-03T20:28:56.417Z,73.70
2018-08-03T20:31:24.933Z,75.20
2018-08-03T20:33:54.682Z,75.00
2018-08-03T20:36:23.205Z,75.60
2018-08-03T20:38:51.692Z,76.90
2018-08-03T20:41:20.098Z,77.50
2018-08-03T20:43:48.589Z,77.90
2018-08-03T20:46:17.863Z,78.70
2018-08-03T20:48:46.365Z,79.00
2018-08-03T20:51:14.839Z,81.00
2018-08-03T20:53:43.351Z,81.30
2018-08-03T20:58:40.030Z,83.50
2018-08-03T21:01:08.506Z,83.20
2018-08-03T21:03:37.065Z,83.50
2018-08-03T21:06:05.587Z,84.30
2018-08-03T21:08:34.059Z,83.90
2018-08-03T21:11:02.816Z,84.20
2018-08-03T21:13:31.280Z,84.50
2018-08-03T21:15:59.912Z,84.80
2018-08-03T21:18:28.478Z,86.40
2018-08-03T21:20:57.136Z,86.50
2018-08-03T21:23:25.554Z,87.70
2018-08-03T21:25:54.098Z,89.20
2018-08-03T21:28:22.587Z,89.90
2018-08-03T21:30:51.175Z,90.50
2018-08-03T21:33:19.813Z,90.70
2018-08-03T21:35:49.198Z,90.80
2018-08-03T21:38:17.685Z,91.00
2018-08-03T21:40:46.383Z,91.70
2018-08-03T21:43:14.899Z,92.20
2018-08-03T21:45:43.396Z,93.10
2018-08-03T21:48:12.039Z,93.30
2018-08-03T21:50:40.590Z,93.90
2018-08-03T21:53:09.594Z,94.20
2018-08-03T21:55:38.215Z,94.40
2018-08-03T21:58:06.705Z,94.70
2018-08-03T22:00:35.246Z,94.90
2018-08-03T22:03:03.706Z,95.50
2018-08-03T22:05:32.412Z,95.60
2018-08-03T22:08:00.834Z,96.00
2018-08-03T22:10:29.471Z,96.80
2018-08-03T22:15:26.350Z,97.70
2018-08-03T22:17:54.834Z,97.80
2018-08-03T22:20:23.377Z,98.00
2018-08-03T22:22:51.896Z,98.40
2018-08-03T22:25:20.429Z,98.90
2018-08-03T22:27:48.969Z,99.50
2018-08-03T22:30:17.621Z,99.90
2018-08-03T22:32:46.242Z,99.90
2018-08-03T22:35:14.798Z,99.90
2018-08-03T22:37:43.398Z,99.90
2018-08-03T22:40:12.102Z,99.90
2018-08-03T22:42:40.589Z,99.90
2018-08-03T22:45:09.012Z,99.90
2018-08-03T22:47:37.457Z,99.90
2018-08-03T22:50:06.066Z,99.90
2018-08-03T22:52:34.773Z,99.90
2018-08-03T22:55:03.357Z,99.90
2018-08-03T23:00:00.144Z,99.90
2018-08-03T23:02:28.674Z,99.90
2018-08-03T23:04:57.236Z,99.90
2018-08-03T23:07:25.899Z,99.90
2018-08-03T23:09:54.377Z,99.90
2018-08-03T23:12:22.853Z,99.90
2018-08-03T23:14:51.342Z,99.90
2018-08-03T23:17:19.906Z,99.90
2018-08-03T23:19:48.368Z,99.90
2018-08-03T23:24:45.006Z,99.90
2018-08-03T23:27:13.705Z,99.90
2018-08-03T23:29:42.141Z,99.90
2018-08-03T23:32:10.587Z,99.90
2018-08-03T23:34:39.094Z,99.90
2018-08-03T23:37:07.557Z,99.90
2018-08-03T23:39:37.034Z,99.90
2018-08-03T23:44:34.239Z,99.90
2018-08-03T23:47:02.690Z,99.90
2018-08-03T23:51:59.297Z,99.90
2018-08-03T23:54:27.865Z,99.90
2018-08-03T23:56:56.370Z,99.90
2018-08-03T23:59:24.973Z,99.90
